Time;durP1;ratioP1;P1;durP2;ratioP2;P2;SDS_P1;SDS_P2;PMS_P1;PMS_P2;Temp;Humidity;BMP_temperature;BMP_pressure;BME280_temperature;BME280_humidity;BME280_pressure;Samples;Min_cycle;Max_cycle;Signal;HPM_P1;HPM_P2
2022/07/18 00:01:20;;;;;;;3.70;1.55;;;;;;;12.83;61.11;99541.81;4133619;28;20044;-69
2022/07/18 00:03:20;;;;;;;4.68;1.52;;;;;;;12.79;60.94;99540.94;4132529;28;20046;-69
2022/07/18 00:05:21;;;;;;;1.52;1.20;;;;;;;12.70;60.53;99531.22;4133483;28;20054;-69
2022/07/18 00:07:21;;;;;;;3.17;1.25;;;;;;;12.65;60.79;99547.00;4133882;28;20431;-69
2022/07/18 00:09:23;;;;;;;5.35;1.55;;;;;;;12.59;61.42;99539.34;4132435;28;20523;-69
2022/07/18 00:11:23;;;;;;;4.63;1.65;;;;;;;12.51;61.08;99535.63;4132034;28;20290;-69
2022/07/18 00:13:24;;;;;;;3.25;1.42;;;;;;;12.45;61.51;99537.09;4134454;28;20474;-69
2022/07/18 00:15:24;;;;;;;3.08;1.35;;;;;;;12.43;61.36;99539.44;4133210;28;20046;-69
2022/07/18 00:17:24;;;;;;;6.25;1.60;;;;;;;12.33;61.86;99534.47;4131703;28;20034;-69
2022/07/18 00:19:27;;;;;;;5.28;1.65;;;;;;;12.32;61.92;99543.94;4133535;28;20152;-69
2022/07/18 00:21:27;;;;;;;3.13;1.40;;;;;;;12.27;61.30;99547.81;4131480;28;20426;-69
2022/07/18 00:23:28;;;;;;;4.50;1.40;;;;;;;12.30;60.64;99541.53;4132461;28;20034;-69
2022/07/18 00:25:28;;;;;;;2.38;1.30;;;;;;;12.31;60.73;99548.69;4133462;28;20329;-69
2022/07/18 00:27:29;;;;;;;2.35;1.38;;;;;;;12.26;61.18;99539.84;4133631;28;20076;-69
2022/07/18 00:29:29;;;;;;;5.03;1.75;;;;;;;12.19;61.89;99554.38;4133777;28;20078;-69
2022/07/18 00:31:30;;;;;;;4.18;1.67;;;;;;;12.08;63.19;99548.59;4136904;28;20038;-69
2022/07/18 00:33:30;;;;;;;2.45;1.50;;;;;;;11.99;63.27;99544.38;4136525;28;20038;-69
2022/07/18 00:35:30;;;;;;;4.05;1.50;;;;;;;11.92;62.89;99542.28;4136247;28;20548;-69
2022/07/18 00:37:31;;;;;;;2.65;1.42;;;;;;;11.94;62.37;99537.16;4136094;28;20502;-69
2022/07/18 00:39:31;;;;;;;6.03;1.48;;;;;;;11.93;63.33;99537.53;4134894;28;20038;-69
2022/07/18 00:41:32;;;;;;;4.65;1.77;;;;;;;11.96;62.21;99534.03;4136024;28;20049;-70
2022/07/18 00:43:32;;;;;;;2.58;1.45;;;;;;;11.97;62.38;99539.22;4135616;28;20048;-69
2022/07/18 00:45:33;;;;;;;3.78;1.70;;;;;;;11.89;63.15;99539.41;4135569;28;20046;-69
2022/07/18 00:47:33;;;;;;;4.13;1.90;;;;;;;11.80;63.64;99534.84;4135742;28;20176;-69
2022/07/18 00:49:34;;;;;;;3.38;1.80;;;;;;;11.81;62.30;99530.13;4135034;28;20053;-69
2022/07/18 00:51:36;;;;;;;4.53;1.58;;;;;;;11.76;63.25;99530.38;4129344;28;20046;-69
2022/07/18 00:53:36;;;;;;;3.65;1.58;;;;;;;11.70;63.13;99526.28;4133789;28;20058;-70
2022/07/18 00:55:38;;;;;;;4.22;1.40;;;;;;;11.60;63.30;99518.50;4132738;28;20042;-69
2022/07/18 00:57:40;;;;;;;1.60;1.20;;;;;;;11.52;63.95;99525.84;4136043;28;20066;-68
2022/07/18 01:02:00;;;;;;;3.58;1.60;;;;;;;11.36;64.90;99534.16;4137552;28;20713;-69
2022/07/18 01:04:00;;;;;;;2.28;1.42;;;;;;;11.32;64.86;99529.69;4135029;28;20073;-69
2022/07/18 01:06:01;;;;;;;2.05;1.40;;;;;;;11.25;64.94;99535.84;4134501;28;20138;-69
2022/07/18 01:08:02;;;;;;;4.53;1.73;;;;;;;11.19;65.90;99528.97;4135426;28;20084;-69
2022/07/18 01:10:04;;;;;;;4.93;1.50;;;;;;;11.08;65.90;99536.19;4136047;28;20349;-69
2022/07/18 01:12:06;;;;;;;7.03;1.83;;;;;;;11.05;66.81;99534.94;4134326;28;20029;-69
2022/07/18 01:14:07;;;;;;;3.13;1.55;;;;;;;11.04;65.67;99538.06;4135960;28;20371;-69
2022/07/18 01:16:07;;;;;;;2.80;1.80;;;;;;;11.02;66.26;99537.63;4134256;28;20398;-69
2022/07/18 01:18:08;;;;;;;2.75;1.50;;;;;;;11.05;65.51;99539.69;4134671;28;20030;-69
2022/07/18 01:20:09;;;;;;;3.38;1.40;;;;;;;10.98;66.60;99552.16;4135058;28;20149;-69
2022/07/18 01:22:10;;;;;;;2.65;1.58;;;;;;;10.94;66.63;99537.44;4135975;28;20038;-69
2022/07/18 01:24:11;;;;;;;3.17;1.70;;;;;;;11.03;65.05;99540.03;4134687;28;20385;-69
2022/07/18 01:26:13;;;;;;;4.65;1.50;;;;;;;11.08;65.24;99530.66;4134741;28;20029;-69
2022/07/18 01:28:14;;;;;;;4.90;1.85;;;;;;;11.07;65.12;99531.81;4135843;28;20026;-69
2022/07/18 01:30:14;;;;;;;2.95;1.60;;;;;;;10.96;65.78;99529.56;4134506;28;20080;-69
2022/07/18 01:32:16;;;;;;;5.65;1.90;;;;;;;10.89;66.59;99531.34;4133732;28;20031;-69
2022/07/18 01:34:25;;;;;;;2.10;1.30;;;;;;;10.84;67.01;99537.13;4135034;28;20037;-69
2022/07/18 01:36:26;;;;;;;2.75;1.52;;;;;;;10.77;66.86;99528.66;4135749;28;20168;-69
2022/07/18 01:38:30;;;;;;;3.42;1.55;;;;;;;10.74;67.27;99540.41;4134832;28;20068;-69
2022/07/18 01:40:31;;;;;;;2.85;1.60;;;;;;;10.74;66.93;99529.34;4135536;28;20132;-69
2022/07/18 01:42:31;;;;;;;2.35;1.50;;;;;;;10.67;67.44;99535.47;4134223;28;20627;-69
2022/07/18 01:44:32;;;;;;;3.25;1.50;;;;;;;10.61;68.06;99532.19;4134585;28;20053;-69
2022/07/18 01:46:33;;;;;;;2.88;1.77;;;;;;;10.63;68.40;99535.41;4136104;28;20466;-69
2022/07/18 01:48:34;;;;;;;2.35;1.48;;;;;;;10.61;66.70;99534.94;4135352;28;20050;-69
2022/07/18 01:50:35;;;;;;;3.17;1.48;;;;;;;10.59;67.37;99536.44;4134654;28;20081;-69
2022/07/18 01:52:35;;;;;;;2.75;1.50;;;;;;;10.55;67.67;99536.34;4135198;28;20083;-69
2022/07/18 01:54:37;;;;;;;3.28;1.70;;;;;;;10.50;67.96;99531.06;4135201;28;20099;-69
2022/07/18 01:56:37;;;;;;;3.85;1.52;;;;;;;10.45;68.70;99536.84;4133922;28;20041;-69
2022/07/18 01:58:37;;;;;;;2.30;1.60;;;;;;;10.42;68.05;99529.25;4134999;28;20095;-69
2022/07/18 02:00:38;;;;;;;3.70;1.83;;;;;;;10.41;67.22;99530.41;4134227;28;20097;-69
2022/07/18 02:02:39;;;;;;;7.05;1.60;;;;;;;10.40;67.15;99532.38;4134373;28;20403;-69
2022/07/18 02:06:58;;;;;;;4.50;1.92;;;;;;;10.30;68.26;99535.63;4133148;28;20101;-69
2022/07/18 02:08:58;;;;;;;3.20;1.70;;;;;;;10.20;69.01;99527.81;4134028;28;20042;-69
2022/07/18 02:10:59;;;;;;;6.13;1.52;;;;;;;10.16;69.03;99535.16;4135013;28;20541;-69
2022/07/18 02:12:59;;;;;;;4.60;1.83;;;;;;;10.11;68.57;99539.00;4133450;28;20050;-69
2022/07/18 02:14:59;;;;;;;4.13;1.50;;;;;;;10.10;68.79;99533.81;4132976;28;20065;-69
2022/07/18 02:17:00;;;;;;;3.30;1.45;;;;;;;10.07;67.88;99532.53;4135060;28;20206;-69
2022/07/18 02:19:00;;;;;;;6.55;1.30;;;;;;;10.07;69.64;99535.31;4133378;28;20038;-68
2022/07/18 02:21:01;;;;;;;2.92;2.03;;;;;;;10.01;69.43;99533.97;4133329;28;20042;-69
2022/07/18 02:23:02;;;;;;;2.38;1.60;;;;;;;10.01;68.72;99530.34;4134233;28;20448;-68
2022/07/18 02:25:04;;;;;;;1.90;1.40;;;;;;;9.99;68.86;99519.66;4136011;28;20425;-69
2022/07/18 02:27:04;;;;;;;3.47;1.60;;;;;;;10.00;68.42;99520.47;4134249;28;20041;-68
2022/07/18 02:29:04;;;;;;;2.65;1.52;;;;;;;9.94;69.27;99521.88;4133901;28;20046;-68
2022/07/18 02:31:05;;;;;;;3.25;1.60;;;;;;;9.92;68.93;99516.66;4134673;28;20313;-68
2022/07/18 02:33:06;;;;;;;2.47;1.58;;;;;;;9.92;68.79;99516.66;4134604;28;20042;-69
2022/07/18 02:35:08;;;;;;;3.95;2.25;;;;;;;9.90;68.93;99520.94;4134571;28;20052;-68
2022/07/18 02:37:08;;;;;;;2.38;2.00;;;;;;;9.86;69.50;99518.09;4134714;28;20034;-69
2022/07/18 02:39:09;;;;;;;5.55;1.52;;;;;;;9.82;69.85;99523.47;4133832;28;20355;-69
2022/07/18 02:41:09;;;;;;;3.03;1.38;;;;;;;9.77;70.49;99520.19;4132523;28;20053;-69
2022/07/18 02:43:10;;;;;;;4.05;1.90;;;;;;;9.74;70.49;99524.41;4134320;28;20044;-69
2022/07/18 02:45:10;;;;;;;3.00;1.77;;;;;;;9.75;68.93;99514.16;4134625;28;20498;-69
2022/07/18 02:47:10;;;;;;;3.97;1.77;;;;;;;9.75;70.06;99511.41;4135866;28;20073;-68
2022/07/18 02:49:26;;;;;;;5.32;1.90;;;;;;;9.75;68.66;99509.44;4135145;28;20061;-68
2022/07/18 02:51:26;;;;;;;3.80;1.70;;;;;;;9.75;68.98;99503.09;4135846;28;20074;-68
2022/07/18 02:53:27;;;;;;;2.30;1.80;;;;;;;9.71;69.94;99502.22;4135394;28;20042;-68
2022/07/18 02:55:27;;;;;;;5.13;1.77;;;;;;;9.70;69.01;99500.59;4136152;28;20387;-68
2022/07/18 02:57:28;;;;;;;5.70;1.90;;;;;;;9.66;70.91;99505.19;4136340;28;20058;-68
2022/07/18 02:59:28;;;;;;;6.10;2.58;;;;;;;9.65;69.97;99511.88;4134956;28;20352;-68
2022/07/18 03:01:28;;;;;;;3.45;1.83;;;;;;;9.56;72.17;99506.47;4136046;28;20063;-68
2022/07/18 03:03:29;;;;;;;4.63;1.95;;;;;;;9.52;72.48;99506.38;4136533;28;20054;-68
2022/07/18 03:05:29;;;;;;;5.95;2.65;;;;;;;9.47;73.30;99503.84;4135605;28;20405;-68
2022/07/18 03:07:29;;;;;;;3.10;1.83;;;;;;;9.43;74.93;99513.97;4136057;28;20416;-69
2022/07/18 03:09:30;;;;;;;5.22;2.13;;;;;;;9.34;74.95;99504.97;4134513;28;20050;-68
2022/07/18 03:11:30;;;;;;;4.65;2.03;;;;;;;9.30;75.65;99504.06;4134615;28;20038;-68
2022/07/18 03:13:31;;;;;;;6.10;1.98;;;;;;;9.24;76.49;99508.19;4134117;28;20046;-68
2022/07/18 03:15:31;;;;;;;3.97;1.98;;;;;;;9.18;76.84;99510.38;4134964;28;20080;-68
2022/07/18 03:17:31;;;;;;;4.00;2.20;;;;;;;9.17;76.40;99513.47;4136098;28;20035;-68
2022/07/18 03:19:32;;;;;;;6.13;1.67;;;;;;;9.22;73.31;99510.50;4135408;28;20085;-68
2022/07/18 03:21:33;;;;;;;5.60;2.45;;;;;;;9.23;73.96;99514.88;4135054;28;20041;-68
2022/07/18 03:23:33;;;;;;;3.00;1.80;;;;;;;9.22;74.68;99516.03;4136579;28;20320;-68
2022/07/18 03:25:34;;;;;;;3.47;1.70;;;;;;;9.16;75.27;99520.16;4133701;28;20049;-68
2022/07/18 03:27:35;;;;;;;4.97;2.17;;;;;;;9.12;75.65;99531.09;4135287;28;20044;-68
2022/07/18 03:29:35;;;;;;;6.53;1.92;;;;;;;9.07;76.29;99525.78;4134746;28;20076;-68
2022/07/18 03:31:35;;;;;;;3.40;1.98;;;;;;;9.01;76.42;99532.66;4133622;28;20695;-68
2022/07/18 03:33:36;;;;;;;4.38;2.00;;;;;;;9.01;76.14;99530.69;4134219;28;20310;-68
2022/07/18 03:35:36;;;;;;;5.70;1.95;;;;;;;9.07;76.99;99536.81;4132309;28;20522;-68
2022/07/18 03:37:36;;;;;;;6.65;2.13;;;;;;;9.02;76.90;99534.28;4136974;28;20514;-68
2022/07/18 03:39:37;;;;;;;6.53;1.75;;;;;;;8.92;76.47;99532.75;4132166;28;20054;-68
2022/07/18 03:41:37;;;;;;;4.18;1.90;;;;;;;8.88;76.99;99531.84;4134302;28;20553;-68
2022/07/18 03:43:39;;;;;;;4.03;1.88;;;;;;;8.85;77.21;99531.69;4134849;28;20049;-68
2022/07/18 03:45:39;;;;;;;6.13;2.17;;;;;;;8.82;77.30;99526.88;4134443;28;20053;-68
2022/07/18 03:47:39;;;;;;;4.20;1.60;;;;;;;8.81;77.34;99528.03;4132804;28;20054;-68
2022/07/18 03:49:40;;;;;;;5.05;1.95;;;;;;;8.78;77.17;99532.28;4133371;28;20053;-68
2022/07/18 03:51:40;;;;;;;4.82;1.73;;;;;;;8.82;77.37;99543.44;4135374;28;20509;-69
2022/07/18 03:53:41;;;;;;;4.25;2.38;;;;;;;8.80;77.26;99535.50;4132892;28;20053;-69
2022/07/18 03:55:41;;;;;;;3.80;1.90;;;;;;;8.84;77.36;99536.41;4133406;28;20038;-69
2022/07/18 03:57:41;;;;;;;3.25;1.90;;;;;;;8.83;77.23;99528.47;4134258;28;20068;-69
2022/07/18 03:59:42;;;;;;;8.20;2.60;;;;;;;8.86;77.19;99536.91;4132101;28;20433;-69
2022/07/18 04:01:42;;;;;;;5.03;2.00;;;;;;;8.86;76.82;99530.56;4133919;28;20207;-69
2022/07/18 04:03:42;;;;;;;5.50;2.17;;;;;;;8.89;76.58;99538.97;4132980;28;20108;-69
2022/07/18 04:05:43;;;;;;;6.80;2.08;;;;;;;8.93;76.59;99528.84;4134970;28;20092;-69
2022/07/18 04:07:44;;;;;;;3.60;2.15;;;;;;;8.96;76.02;99522.66;4136556;28;20045;-69
2022/07/18 04:09:44;;;;;;;6.40;2.15;;;;;;;8.99;76.77;99521.97;4135841;28;20046;-69
2022/07/18 04:11:45;;;;;;;5.10;2.00;;;;;;;9.01;76.06;99522.41;4136708;28;20144;-69
2022/07/18 04:13:45;;;;;;;7.18;2.08;;;;;;;9.09;74.54;99517.16;4136778;28;20045;-69
2022/07/18 04:15:45;;;;;;;7.35;1.88;;;;;;;9.12;74.63;99522.81;4136348;28;20038;-69
2022/07/18 04:17:46;;;;;;;3.03;1.77;;;;;;;9.19;74.76;99516.72;4136612;28;20050;-68
2022/07/18 04:19:46;;;;;;;2.72;2.03;;;;;;;9.26;73.75;99519.69;4135921;28;20228;-69
2022/07/18 04:21:47;;;;;;;4.30;2.40;;;;;;;9.32;74.41;99515.56;4128296;28;20085;-69
2022/07/18 04:23:47;;;;;;;4.57;2.10;;;;;;;9.39;73.43;99512.25;4135460;28;20053;-69
2022/07/18 04:25:47;;;;;;;7.40;2.28;;;;;;;9.49;73.44;99511.78;4134761;28;20041;-69
2022/07/18 04:27:48;;;;;;;8.75;2.45;;;;;;;9.61;72.25;99516.50;4134317;28;20391;-69
2022/07/18 04:29:48;;;;;;;6.40;2.05;;;;;;;9.71;71.73;99510.50;4135610;28;20764;-69
2022/07/18 04:31:49;;;;;;;7.05;2.40;;;;;;;9.82;71.89;99508.88;4135109;28;20050;-69
2022/07/18 04:33:49;;;;;;;7.07;2.83;;;;;;;9.94;72.31;99511.63;4134847;28;20153;-69
2022/07/18 04:35:49;;;;;;;11.27;2.90;;;;;;;10.06;70.41;99511.56;4138042;28;20141;-69
2022/07/18 04:37:50;;;;;;;6.55;2.30;;;;;;;10.13;71.17;99500.72;4136892;28;20054;-69
2022/07/18 04:39:50;;;;;;;3.83;2.38;;;;;;;10.21;71.59;99506.47;4138485;28;20046;-69
2022/07/18 04:41:51;;;;;;;7.50;2.25;;;;;;;10.31;71.45;99511.53;4137689;28;20053;-69
2022/07/18 04:43:51;;;;;;;5.53;2.17;;;;;;;10.38;71.16;99508.97;4137474;28;20046;-69
2022/07/18 04:45:52;;;;;;;4.25;1.95;;;;;;;10.45;71.16;99511.94;4138507;28;20442;-69
2022/07/18 04:47:53;;;;;;;7.50;2.20;;;;;;;10.49;71.38;99498.22;4137015;28;20049;-69
2022/07/18 04:49:54;;;;;;;3.72;2.40;;;;;;;10.57;71.19;99502.78;4137670;28;20074;-69
2022/07/18 04:51:54;;;;;;;6.25;1.98;;;;;;;10.64;70.59;99512.09;4137039;28;20038;-69
2022/07/18 04:53:55;;;;;;;3.20;1.70;;;;;;;10.73;70.53;99509.16;4136678;28;20108;-69
2022/07/18 04:55:55;;;;;;;9.10;2.38;;;;;;;10.83;70.59;99508.63;4082587;28;20116;-69
2022/07/18 04:57:56;;;;;;;5.85;2.30;;;;;;;10.93;70.09;99507.34;4136786;28;20487;-69
2022/07/18 04:59:56;;;;;;;6.43;2.20;;;;;;;11.03;68.75;99506.00;4136184;28;20088;-69
2022/07/18 05:01:56;;;;;;;4.68;1.88;;;;;;;11.16;67.86;99505.53;4134933;28;20888;-69
2022/07/18 05:03:56;;;;;;;6.32;3.03;;;;;;;11.30;67.38;99496.00;4138447;28;20046;-69
2022/07/18 05:05:57;;;;;;;5.85;2.08;;;;;;;11.42;66.31;99495.88;4132139;28;20168;-69
2022/07/18 05:07:57;;;;;;;4.90;2.08;;;;;;;11.57;64.98;99485.94;4136554;28;20436;-69
2022/07/18 05:09:57;;;;;;;5.28;2.30;;;;;;;11.68;66.84;99493.38;4137847;28;20528;-69
2022/07/18 05:11:58;;;;;;;5.75;2.22;;;;;;;11.82;67.52;99496.47;4122103;28;20043;-69
2022/07/18 05:13:58;;;;;;;6.20;2.28;;;;;;;11.92;67.35;99497.91;4137410;28;20435;-69
2022/07/18 05:15:58;;;;;;;8.43;2.90;;;;;;;12.06;68.09;99500.97;4137189;28;20053;-69
2022/07/18 05:17:59;;;;;;;9.73;2.35;;;;;;;12.16;68.54;99501.56;4138395;28;20084;-69
2022/07/18 05:19:59;;;;;;;8.52;2.40;;;;;;;12.26;67.19;99512.09;4135447;28;20068;-69
2022/07/18 05:21:59;;;;;;;6.45;2.50;;;;;;;12.35;67.10;99498.81;4137404;28;20042;-68
2022/07/18 05:24:00;;;;;;;5.95;2.10;;;;;;;12.47;66.79;99501.44;4138324;28;20034;-69
2022/07/18 05:26:00;;;;;;;2.90;1.80;;;;;;;12.58;64.95;99494.13;4137108;28;20478;-69
2022/07/18 05:28:00;;;;;;;4.35;2.08;;;;;;;12.68;65.25;99492.75;4137516;28;20041;-69
2022/07/18 05:30:03;;;;;;;6.05;2.70;;;;;;;12.76;65.44;99496.44;4137374;28;20108;-70
2022/07/18 05:32:04;;;;;;;5.22;2.20;;;;;;;12.90;65.21;99502.25;4136977;28;20021;-69
2022/07/18 05:34:05;;;;;;;3.13;2.40;;;;;;;13.01;65.31;99499.69;4134467;28;20036;-70
2022/07/18 05:36:06;;;;;;;5.80;2.20;;;;;;;13.10;64.89;99501.03;4137568;28;20161;-69
2022/07/18 05:38:07;;;;;;;4.45;2.25;;;;;;;13.18;63.92;99508.34;4138081;28;20518;-69
2022/07/18 05:40:10;;;;;;;5.78;2.50;;;;;;;13.26;63.95;99506.50;4135918;28;20113;-69
2022/07/18 05:42:10;;;;;;;4.70;1.80;;;;;;;13.33;63.10;99501.09;4137074;28;20115;-69
2022/07/18 05:44:11;;;;;;;4.15;2.17;;;;;;;13.43;62.80;99503.22;4137563;28;20072;-69
2022/07/18 05:46:11;;;;;;;3.65;1.73;;;;;;;13.52;61.96;99505.75;4136780;28;20040;-69
2022/07/18 05:48:11;;;;;;;4.75;2.00;;;;;;;13.66;62.47;99503.19;4137006;28;20409;-69
2022/07/18 05:50:12;;;;;;;4.45;1.95;;;;;;;13.82;64.04;99513.34;4135563;28;20034;-69
2022/07/18 05:52:12;;;;;;;8.95;2.33;;;;;;;13.91;62.58;99505.56;4137824;28;20196;-69
2022/07/18 05:54:18;;;;;;;8.88;2.20;;;;;;;13.97;60.73;99499.25;4135696;28;20038;-69
2022/07/18 05:56:18;;;;;;;4.53;1.90;;;;;;;14.02;60.72;99493.38;4137379;28;20034;-69
2022/07/18 05:58:18;;;;;;;9.93;2.20;;;;;;;14.13;61.53;99499.09;4135886;28;20324;-69
2022/07/18 06:00:19;;;;;;;8.60;2.95;;;;;;;14.21;61.04;99495.22;4135553;28;20061;-69
2022/07/18 06:02:20;;;;;;;8.57;3.00;;;;;;;14.26;60.37;99499.66;4136766;28;20026;-69
2022/07/18 06:04:20;;;;;;;5.63;2.30;;;;;;;14.32;60.64;99500.94;4136855;28;20070;-69
2022/07/18 06:06:20;;;;;;;5.75;2.03;;;;;;;14.39;60.52;99494.63;4136593;28;20113;-69
2022/07/18 06:08:21;;;;;;;6.43;2.17;;;;;;;14.47;59.90;99496.34;4135200;28;20104;-69
2022/07/18 06:10:22;;;;;;;5.05;2.30;;;;;;;14.56;59.93;99502.44;4137079;28;20382;-69
2022/07/18 06:12:23;;;;;;;5.13;2.50;;;;;;;14.64;58.65;99498.56;4136317;28;20359;-69
2022/07/18 06:14:24;;;;;;;5.03;2.30;;;;;;;14.73;58.80;99495.47;4136654;28;20277;-69
2022/07/18 06:16:24;;;;;;;5.03;1.95;;;;;;;14.83;59.00;99497.59;4137099;28;20034;-70
2022/07/18 06:18:24;;;;;;;6.70;2.55;;;;;;;14.93;57.99;99499.69;4135814;28;20081;-70
2022/07/18 06:20:25;;;;;;;7.95;2.83;;;;;;;15.02;57.09;99493.78;4135782;28;20068;-69
2022/07/18 06:22:25;;;;;;;8.13;2.15;;;;;;;15.11;55.89;99497.84;4137079;28;20660;-69
2022/07/18 06:24:26;;;;;;;4.20;2.20;;;;;;;15.23;56.06;99496.00;4137076;28;20038;-69
2022/07/18 06:26:26;;;;;;;1.70;1.40;;;;;;;15.32;55.41;99497.25;4135688;28;20356;-70
2022/07/18 06:28:28;;;;;;;3.25;2.35;;;;;;;15.43;55.11;99500.94;4135096;28;20145;-70
2022/07/18 06:30:28;;;;;;;7.30;2.67;;;;;;;15.53;54.29;99506.97;4137100;28;20317;-69
2022/07/18 06:32:28;;;;;;;4.90;2.40;;;;;;;15.58;53.70;99510.22;4135725;28;20487;-70
2022/07/18 06:34:29;;;;;;;5.03;2.03;;;;;;;15.62;53.58;99493.53;4135173;28;20049;-70
2022/07/18 06:36:29;;;;;;;3.40;1.90;;;;;;;15.68;53.21;99492.78;4136346;28;20052;-69
2022/07/18 06:38:29;;;;;;;3.67;2.30;;;;;;;15.78;53.62;99493.25;4134974;28;20494;-70
2022/07/18 06:40:29;;;;;;;5.75;2.38;;;;;;;15.93;52.94;99489.38;4136294;28;20049;-70
2022/07/18 06:42:30;;;;;;;6.70;2.28;;;;;;;16.06;53.16;99490.66;4136363;28;20042;-70
2022/07/18 06:44:30;;;;;;;2.67;1.85;;;;;;;16.12;52.24;99483.47;4136655;28;20037;-70
2022/07/18 06:46:31;;;;;;;3.92;2.08;;;;;;;16.20;51.23;99484.31;4136925;28;20041;-70
2022/07/18 06:48:33;;;;;;;3.78;1.85;;;;;;;16.28;51.47;99483.16;4136160;28;20522;-70
2022/07/18 06:50:33;;;;;;;6.28;3.08;;;;;;;16.36;51.48;99489.56;4135904;28;20038;-70
2022/07/18 06:52:33;;;;;;;4.32;1.88;;;;;;;16.50;50.55;99478.47;4136754;28;20280;-70
2022/07/18 06:54:36;;;;;;;4.28;1.98;;;;;;;16.69;51.40;99485.75;4136575;28;20085;-70
2022/07/18 06:56:36;;;;;;;8.98;2.33;;;;;;;16.79;50.28;99488.56;4136622;28;20053;-70
2022/07/18 06:58:36;;;;;;;4.90;1.70;;;;;;;16.89;49.84;99480.63;4136109;28;20060;-70
2022/07/18 07:00:37;;;;;;;3.65;1.60;;;;;;;16.95;49.86;99476.22;4135976;28;20556;-70
2022/07/18 07:02:45;;;;;;;6.32;1.80;;;;;;;17.07;49.13;99475.84;4136738;28;20061;-70
2022/07/18 07:04:45;;;;;;;4.07;2.00;;;;;;;17.18;47.93;99481.44;4136539;28;20049;-70
2022/07/18 07:06:45;;;;;;;3.30;1.90;;;;;;;17.26;46.89;99474.66;4135586;28;20512;-70
2022/07/18 07:08:46;;;;;;;3.75;1.70;;;;;;;17.39;46.53;99475.88;4135645;28;20492;-70
2022/07/18 07:10:46;;;;;;;6.47;1.58;;;;;;;17.49;47.44;99474.28;4137027;28;20080;-70
2022/07/18 07:12:49;;;;;;;3.22;1.50;;;;;;;17.58;47.75;99474.66;4136155;28;20046;-70
2022/07/18 07:14:50;;;;;;;5.10;1.92;;;;;;;17.73;45.29;99472.69;4136384;28;20046;-70
2022/07/18 07:16:50;;;;;;;5.43;1.73;;;;;;;17.90;45.72;99474.66;4136864;28;20049;-70
2022/07/18 07:18:50;;;;;;;4.30;1.50;;;;;;;18.04;44.96;99468.19;4135374;28;20042;-70
2022/07/18 07:20:51;;;;;;;3.30;1.73;;;;;;;18.15;44.06;99475.38;4136486;28;20763;-70
2022/07/18 07:22:54;;;;;;;4.53;1.52;;;;;;;18.23;43.68;99470.56;4135667;28;20053;-70
2022/07/18 07:24:54;;;;;;;6.90;1.50;;;;;;;18.33;43.14;99475.31;4136035;28;20417;-70
2022/07/18 07:26:55;;;;;;;3.45;1.52;;;;;;;18.41;42.67;99465.66;4129834;28;20073;-70
2022/07/18 07:28:55;;;;;;;4.22;1.60;;;;;;;18.46;42.17;99464.47;4132852;28;20046;-70
2022/07/18 07:30:55;;;;;;;5.40;1.98;;;;;;;18.58;42.46;99468.78;4135644;28;20448;-70
2022/07/18 07:32:56;;;;;;;2.50;1.50;;;;;;;18.84;41.60;99465.47;4132451;28;20060;-70
2022/07/18 07:34:56;;;;;;;4.45;1.70;;;;;;;18.97;41.90;99458.19;4135243;28;20038;-70
2022/07/18 07:36:57;;;;;;;3.50;1.40;;;;;;;19.12;40.04;99455.28;4135898;28;20233;-70
2022/07/18 07:38:57;;;;;;;3.80;1.50;;;;;;;19.25;39.07;99456.38;4135662;28;20056;-70
2022/07/18 07:41:01;;;;;;;5.03;1.83;;;;;;;19.34;39.93;99459.50;4138096;28;20057;-70
2022/07/18 07:43:09;;;;;;;2.72;1.40;;;;;;;19.35;39.10;99449.88;4139138;28;20050;-70
2022/07/18 07:45:11;;;;;;;4.43;1.42;;;;;;;19.39;38.82;99456.25;4139260;28;20065;-70
2022/07/18 07:47:11;;;;;;;3.92;1.95;;;;;;;19.45;39.02;99454.63;4137785;28;20053;-70
2022/07/18 07:49:12;;;;;;;4.13;1.40;;;;;;;19.46;38.56;99450.59;4138906;28;20045;-70
2022/07/18 07:51:13;;;;;;;2.97;1.63;;;;;;;19.55;38.50;99455.72;4138890;28;20441;-70
2022/07/18 07:53:14;;;;;;;2.05;1.40;;;;;;;19.73;38.65;99458.38;4139503;28;20413;-70
2022/07/18 07:55:14;;;;;;;4.13;1.50;;;;;;;19.89;38.31;99453.81;4138444;28;20128;-70
2022/07/18 07:57:14;;;;;;;3.38;1.70;;;;;;;20.01;36.17;99452.47;4139333;28;20050;-70
2022/07/18 07:59:14;;;;;;;3.33;1.50;;;;;;;20.16;35.07;99453.91;4137745;28;20037;-70
2022/07/18 08:01:17;;;;;;;2.90;1.40;;;;;;;20.25;35.16;99449.78;4137950;28;20591;-70
2022/07/18 08:03:17;;;;;;;3.83;1.40;;;;;;;20.42;36.29;99448.75;4139919;28;20168;-70
2022/07/18 08:05:18;;;;;;;3.22;1.30;;;;;;;20.48;35.62;99439.47;4139048;28;20798;-70
2022/07/18 08:07:20;;;;;;;3.05;1.50;;;;;;;20.53;35.75;99438.22;4139572;28;20073;-70
2022/07/18 08:09:20;;;;;;;4.00;1.63;;;;;;;20.59;36.95;99430.88;4138080;28;20040;-70
2022/07/18 08:11:21;;;;;;;4.05;1.50;;;;;;;20.64;35.39;99432.44;4139067;28;20054;-70
2022/07/18 08:13:21;;;;;;;2.70;1.70;;;;;;;20.64;35.43;99424.81;4137764;28;20041;-70
2022/07/18 08:15:21;;;;;;;5.38;1.70;;;;;;;20.70;35.96;99425.13;4138018;28;20075;-70
2022/07/18 08:17:22;;;;;;;4.25;1.30;;;;;;;20.88;35.07;99431.28;4138789;28;20208;-70
2022/07/18 08:19:22;;;;;;;4.78;1.60;;;;;;;21.07;35.02;99431.81;4138314;28;20151;-70
2022/07/18 08:21:22;;;;;;;5.63;2.00;;;;;;;21.22;34.67;99427.53;4138420;28;20046;-70
2022/07/18 08:23:23;;;;;;;4.10;1.48;;;;;;;21.39;35.29;99420.06;4138954;28;20053;-71
2022/07/18 08:25:24;;;;;;;2.85;1.00;;;;;;;21.62;33.48;99420.03;4137498;28;20050;-70
2022/07/18 08:27:24;;;;;;;3.65;1.48;;;;;;;21.63;32.33;99421.63;4138061;28;20108;-70
2022/07/18 08:29:25;;;;;;;5.28;1.63;;;;;;;21.73;34.77;99420.63;4138954;28;20041;-71
2022/07/18 08:31:25;;;;;;;3.25;1.13;;;;;;;21.93;32.03;99422.66;4138837;28;20052;-70
2022/07/18 08:33:25;;;;;;;3.55;1.38;;;;;;;22.03;31.83;99414.03;4138261;28;20042;-70
2022/07/18 08:35:26;;;;;;;3.25;1.40;;;;;;;22.10;31.84;99416.75;4139158;28;20045;-71
2022/07/18 08:37:27;;;;;;;6.65;1.40;;;;;;;22.15;32.45;99407.75;4139140;28;20064;-70
2022/07/18 08:39:27;;;;;;;2.88;1.27;;;;;;;22.20;32.54;99412.09;4136229;28;20507;-70
2022/07/18 08:41:28;;;;;;;5.40;1.40;;;;;;;22.24;32.83;99412.03;4138918;28;20060;-70
2022/07/18 08:43:29;;;;;;;2.97;1.20;;;;;;;22.28;32.21;99407.91;4137434;28;20371;-70
2022/07/18 08:45:29;;;;;;;2.90;1.25;;;;;;;22.32;32.44;99414.25;4139218;28;20100;-70
2022/07/18 08:47:31;;;;;;;6.78;1.73;;;;;;;22.47;32.46;99419.59;4136632;28;20042;-71
2022/07/18 08:49:33;;;;;;;4.65;1.50;;;;;;;22.56;32.60;99414.16;4136360;28;20074;-71
2022/07/18 08:51:36;;;;;;;3.50;1.73;;;;;;;22.68;32.38;99416.31;4138273;28;20082;-71
2022/07/18 08:53:37;;;;;;;2.75;1.10;;;;;;;22.75;30.33;99410.47;4137513;28;20047;-71
2022/07/18 08:55:38;;;;;;;2.38;1.40;;;;;;;22.87;31.07;99415.50;4137441;28;20046;-71
2022/07/18 08:57:38;;;;;;;2.58;1.02;;;;;;;23.02;30.29;99413.13;4137836;28;20046;-71
2022/07/18 08:59:39;;;;;;;3.13;1.65;;;;;;;23.12;31.17;99420.53;4137733;28;20470;-70
2022/07/18 09:01:39;;;;;;;1.90;1.10;;;;;;;23.16;29.97;99415.59;4137155;28;20437;-71
2022/07/18 09:03:40;;;;;;;6.97;1.38;;;;;;;23.29;30.50;99421.31;4138363;28;20121;-71
2022/07/18 09:05:41;;;;;;;2.80;1.27;;;;;;;23.38;29.72;99418.66;4138576;28;20045;-71
2022/07/18 09:07:42;;;;;;;1.40;0.82;;;;;;;23.39;29.06;99411.78;4121323;28;20390;-70
2022/07/18 09:09:51;;;;;;;1.42;1.05;;;;;;;23.53;29.95;99411.41;4134570;28;20121;-71
2022/07/18 09:11:54;;;;;;;3.40;1.20;;;;;;;23.66;28.91;99403.03;4137794;28;20073;-71
2022/07/18 09:13:55;;;;;;;4.43;1.17;;;;;;;23.79;29.20;99406.72;4138060;28;20205;-71
2022/07/18 09:16:00;;;;;;;2.50;1.13;;;;;;;23.85;28.63;99404.16;4137508;28;20049;-71
2022/07/18 09:18:00;;;;;;;2.17;1.10;;;;;;;23.94;29.04;99409.94;4137931;28;20041;-70
2022/07/18 09:20:04;;;;;;;2.70;1.60;;;;;;;23.97;28.09;99403.41;4135831;28;20073;-72
2022/07/18 09:22:14;;;;;;;5.88;1.65;;;;;;;24.07;28.45;99412.81;4138136;28;20034;-71
2022/07/18 09:24:15;;;;;;;5.20;1.25;;;;;;;24.20;27.04;99410.03;4136051;28;20054;-71
2022/07/18 09:26:44;;;;;;;3.35;1.20;;;;;;;24.32;27.41;99404.41;4137752;28;20037;-71
2022/07/18 09:28:46;;;;;;;5.00;1.50;;;;;;;24.32;27.02;99406.47;4137131;28;20049;-71
2022/07/18 09:30:46;;;;;;;3.50;1.30;;;;;;;24.28;27.41;99403.72;4136075;28;20505;-71
2022/07/18 09:33:10;;;;;;;2.15;1.25;;;;;;;24.31;26.96;99407.69;4137391;28;20042;-71
2022/07/18 09:35:16;;;;;;;3.15;1.38;;;;;;;24.35;26.08;99403.53;4136613;28;20046;-70